METAR AND TAF INFORMATION
METAR FOR LDDU
ADDS - METARS form results

(2059 UTC 03 August 2021)
Data provider http://aviationweather.gov/metar/data/
 
METAR text: LDDU 032030Z 08006KT CAVOK 26/13 Q1014 NOSIG
Conditions at: LDDU (DUBROVNIK-CILIPI, HR) observed 2030 UTC 03 August 2021
Temperature: 26.0°C (79°F)
Dewpoint: 13.0°C (55°F) [RH = 45%]
Pressure (altimeter): 29.94 inches Hg (1014.0 mb)
Winds: from the E (80 degrees) at 7 MPH (6 knots; 3.1 m/s)
Visibility: 6 or more miles (10+ km)
Ceiling: ceiling and visibility are OK
Clouds: unknown
Weather: no significant weather observed at this time

METAR text: LDDU 032000Z 08007KT CAVOK 26/13 Q1015 NOSIG
Conditions at: LDDU (DUBROVNIK-CILIPI, HR) observed 2000 UTC 03 August 2021
Temperature: 26.0°C (79°F)
Dewpoint: 13.0°C (55°F) [RH = 45%]
Pressure (altimeter): 29.97 inches Hg (1015.0 mb)
Winds: from the E (80 degrees) at 8 MPH (7 knots; 3.6 m/s)
Visibility: 6 or more miles (10+ km)
Ceiling: ceiling and visibility are OK
Clouds: unknown
Weather: no significant weather observed at this time

Forecast for: LDDU (DUBROVNIK-CILIPI, HR)
Text: TAF LDDU 031725Z 0318/0418 10007KT CAVOK TX29/0412Z TN22/0403Z
Forecast period: 1800 UTC 03 August 2021 to 0700 UTC 04 August 2021
Forecast type: FROM: standard forecast or significant change
Winds: from the E (100 degrees) at 8 MPH (7 knots; 3.6 m/s)
Visibility: 6 or more miles (10+ km)
Ceiling: unknown
Clouds: missing
Weather: no significant weather forecast for this period
Text: BECMG 0407/0409 16012KT
Forecast period: 0700 to 1800 UTC 04 August 2021
Forecast type: BECOMING: Conditions expected to become as follows by 0900 UTC 04 August 2021
Winds: from the SSE (160 degrees) at 14 MPH (12 knots; 6.2 m/s)
Visibility: 6 or more miles (10+ km)
Ceiling: unknown
Clouds: missing
Weather: no significant weather forecast for this period

 AIRPORT MAP

 RUNWAY INFORMATION
Runway 12 Runway length 10827 ft Runway width 148 ft
Runway elevation 519 ft Runway displaced threshold 488 ft Runway heading 118
Runway 30 Runway length 10827 ft Runway width 148 ft
Runway elevation 484 ft Runway displaced threshold 0 ft Runway heading 298

 AIRPORT FREQUENCIES
Type APP Name APP Frequency 123.6 MHZ
Type TWR Name TWR Frequency 129.5 MHZ

 AIRPORT NEAR NAVIGATION AIDS
Type NDB Name Dubrovnik Frequency 397 KHZ
Type VOR-DME Name Dubrovnik Frequency 115400 KHZ
Type NDB Name Dubrovnik Frequency 414 KHZ
Type NDB Name Kolocep Frequency 318 KHZ





Powered by Virtual Airlines Manager

Maps by Rafael Santos